PST,Max TemperatureF,Mean TemperatureF,Min TemperatureF,Max Dew PointF,MeanDew PointF,Min DewpointF,Max Humidity, Mean Humidity, Min Humidity, Max Sea Level PressureIn, Mean Sea Level PressureIn, Min Sea Level PressureIn, Max VisibilityMiles, Mean VisibilityMiles, Min VisibilityMiles, Max Wind SpeedMPH, Mean Wind SpeedMPH, Max Gust SpeedMPH,PrecipitationIn, CloudCover, Events, WindDirDegrees
2012-11-1,68,50,32,34,22,13,67,40,12,29.99,29.93,29.86,10,10,10,20,6,26,0.00,4,,334
2012-11-2,70,51,32,33,29,24,76,48,20,30.10,30.01,29.93,10,10,10,9,5,22,0.00,0,,299
2012-11-3,72,51,30,26,23,18,69,42,14,30.21,30.13,30.06,10,10,10,9,5,10,0.00,0,,318
2012-11-4,77,54,31,22,17,11,56,32,8,30.33,30.26,30.20,10,10,10,12,5,13,0.00,0,,325
2012-11-5,79,56,33,25,20,15,51,31,11,30.38,30.26,30.17,10,10,10,12,5,14,0.00,0,,326
2012-11-6,78,57,35,25,21,19,56,34,11,30.26,30.15,30.05,10,10,10,10,4,14,0.00,0,,327
2012-11-7,75,54,33,24,22,19,56,35,13,30.13,29.97,29.80,10,10,10,14,5,20,0.00,0,,316
2012-11-8,71,52,33,23,16,7,61,36,11,29.78,29.63,29.51,10,10,10,25,7,33,0.00,0,,293
2012-11-9,50,38,25,20,9,-1,47,30,13,29.82,29.68,29.53,10,10,10,30,10,38,0.00,2,,331
2012-11-10,49,32,15,15,8,3,67,42,17,30.17,29.97,29.83,10,10,10,18,8,25,0.00,1,,347
2012-11-11,48,32,16,11,4,-4,67,40,12,30.44,30.33,30.17,10,10,10,17,5,21,0.00,0,,299
2012-11-12,56,36,15,7,1,-4,49,29,9,30.48,30.36,30.24,10,10,10,10,4,18,0.00,0,,319
2012-11-13,62,40,18,10,6,2,49,31,12,30.36,30.25,30.13,10,10,10,15,5,18,0.00,0,,326
2012-11-14,63,43,22,10,9,7,54,33,12,30.26,30.18,30.08,10,10,10,8,4,,0.00,0,,334
2012-11-15,59,41,23,29,13,8,54,34,14,30.16,30.07,30.03,10,10,10,16,5,17,0.00,4,,167
2012-11-16,59,48,36,37,34,29,82,59,36,30.05,29.98,29.92,10,10,10,18,6,23,T,3,Rain,190
2012-11-17,59,48,37,41,37,34,85,66,47,30.01,29.92,29.86,10,10,10,24,9,30,T,4,,165
2012-11-18,62,45,28,33,28,21,92,59,25,30.09,29.98,29.90,10,10,10,15,4,18,0.00,0,,227
2012-11-19,60,45,29,28,23,19,69,49,28,30.23,30.18,30.08,10,10,9,14,4,30,0.00,0,,238
2012-11-20,62,44,25,32,26,20,81,56,30,30.22,30.13,30.02,10,10,10,13,4,17,0.00,0,,307
2012-11-21,60,43,26,32,27,22,84,58,32,30.12,30.07,30.00,10,10,10,9,3,13,0.00,0,,334
2012-11-22,69,48,27,22,17,13,69,41,12,30.31,30.22,30.12,10,10,10,12,6,22,0.00,0,,322
2012-11-23,69,48,26,16,13,11,53,32,11,30.38,30.29,30.20,10,10,10,10,6,14,0.00,0,,315
2012-11-24,68,47,25,14,11,9,50,31,12,30.31,30.16,30.05,10,10,10,9,5,12,0.00,0,,322
2012-11-25,68,46,24,14,11,9,55,32,9,30.07,29.99,29.87,10,10,10,10,4,,0.00,0,,324
2012-11-26,65,44,22,13,11,9,50,31,12,30.19,30.11,30.03,10,10,10,15,6,18,0.00,0,,311
2012-11-27,58,40,21,20,14,8,59,39,19,30.27,30.17,30.10,10,10,10,12,4,16,0.00,0,,329
2012-11-28,62,42,22,40,27,15,92,58,23,30.11,30.03,29.89,10,10,10,30,7,39,0.01,2,Rain,312
2012-11-29,62,44,25,37,32,23,100,67,34,30.09,30.00,29.91,10,10,10,17,5,22,0.00,1,,154
2012-11-30,64,49,33,44,31,24,96,60,23,29.95,29.88,29.77,10,10,10,36,9,44,0.03,3,Rain,10